sensor_id;sensor_type;location;lat;lon;timestamp;P1;durP1;ratioP1;P2;durP2;ratioP2
65230;SDS011;51813;40.666;16.602;2022-12-18T00:00:42;3.30;;;1.42;;
65230;SDS011;51813;40.666;16.602;2022-12-18T00:03:09;2.33;;;1.10;;
65230;SDS011;51813;40.666;16.602;2022-12-18T00:05:35;2.42;;;1.20;;
65230;SDS011;51813;40.666;16.602;2022-12-18T00:08:01;3.00;;;1.45;;
65230;SDS011;51813;40.666;16.602;2022-12-18T00:10:28;2.55;;;1.50;;
65230;SDS011;51813;40.666;16.602;2022-12-18T00:12:54;2.95;;;1.50;;
65230;SDS011;51813;40.666;16.602;2022-12-18T00:15:19;2.20;;;1.20;;
65230;SDS011;51813;40.666;16.602;2022-12-18T00:17:46;4.28;;;1.23;;
65230;SDS011;51813;40.666;16.602;2022-12-18T00:20:11;3.30;;;1.27;;
65230;SDS011;51813;40.666;16.602;2022-12-18T00:22:37;2.42;;;1.20;;
65230;SDS011;51813;40.666;16.602;2022-12-18T00:25:03;3.65;;;1.30;;
65230;SDS011;51813;40.666;16.602;2022-12-18T00:27:29;1.95;;;1.10;;
65230;SDS011;51813;40.666;16.602;2022-12-18T00:29:54;2.10;;;1.00;;
65230;SDS011;51813;40.666;16.602;2022-12-18T00:32:20;2.75;;;1.27;;
65230;SDS011;51813;40.666;16.602;2022-12-18T00:34:45;2.63;;;1.33;;
65230;SDS011;51813;40.666;16.602;2022-12-18T00:37:11;3.15;;;1.10;;
65230;SDS011;51813;40.666;16.602;2022-12-18T00:39:37;2.10;;;1.08;;
65230;SDS011;51813;40.666;16.602;2022-12-18T00:42:02;2.53;;;1.20;;
65230;SDS011;51813;40.666;16.602;2022-12-18T00:44:47;2.85;;;1.33;;
65230;SDS011;51813;40.666;16.602;2022-12-18T00:47:12;1.83;;;1.05;;
65230;SDS011;51813;40.666;16.602;2022-12-18T00:49:38;2.03;;;1.10;;
65230;SDS011;51813;40.666;16.602;2022-12-18T00:52:04;1.88;;;1.17;;
65230;SDS011;51813;40.666;16.602;2022-12-18T00:54:29;3.05;;;1.25;;
65230;SDS011;51813;40.666;16.602;2022-12-18T00:56:55;2.00;;;1.10;;
65230;SDS011;51813;40.666;16.602;2022-12-18T00:59:21;2.47;;;1.10;;
65230;SDS011;51813;40.666;16.602;2022-12-18T01:01:46;2.67;;;1.20;;
65230;SDS011;51813;40.666;16.602;2022-12-18T01:04:12;2.67;;;1.17;;
65230;SDS011;51813;40.666;16.602;2022-12-18T01:06:38;2.40;;;1.20;;
65230;SDS011;51813;40.666;16.602;2022-12-18T01:09:05;2.20;;;1.10;;
65230;SDS011;51813;40.666;16.602;2022-12-18T01:11:31;2.03;;;1.20;;
65230;SDS011;51813;40.666;16.602;2022-12-18T01:13:56;2.70;;;1.40;;
65230;SDS011;51813;40.666;16.602;2022-12-18T01:16:25;1.95;;;1.10;;
65230;SDS011;51813;40.666;16.602;2022-12-18T01:18:51;3.03;;;1.35;;
65230;SDS011;51813;40.666;16.602;2022-12-18T01:21:18;1.55;;;1.02;;
65230;SDS011;51813;40.666;16.602;2022-12-18T01:23:44;2.00;;;1.10;;
65230;SDS011;51813;40.666;16.602;2022-12-18T01:26:11;2.05;;;1.02;;
65230;SDS011;51813;40.666;16.602;2022-12-18T01:28:39;2.63;;;1.15;;
65230;SDS011;51813;40.666;16.602;2022-12-18T01:31:09;2.47;;;1.20;;
65230;SDS011;51813;40.666;16.602;2022-12-18T01:33:48;2.55;;;1.20;;
65230;SDS011;51813;40.666;16.602;2022-12-18T01:36:15;2.88;;;1.20;;
65230;SDS011;51813;40.666;16.602;2022-12-18T01:38:49;2.25;;;1.10;;
65230;SDS011;51813;40.666;16.602;2022-12-18T01:41:16;1.60;;;0.90;;
65230;SDS011;51813;40.666;16.602;2022-12-18T01:43:44;1.67;;;1.05;;
65230;SDS011;51813;40.666;16.602;2022-12-18T01:46:13;2.08;;;1.10;;
65230;SDS011;51813;40.666;16.602;2022-12-18T01:48:39;2.20;;;1.40;;
65230;SDS011;51813;40.666;16.602;2022-12-18T01:51:06;2.90;;;1.10;;
65230;SDS011;51813;40.666;16.602;2022-12-18T01:53:34;1.95;;;1.10;;
65230;SDS011;51813;40.666;16.602;2022-12-18T01:56:02;3.33;;;1.50;;
65230;SDS011;51813;40.666;16.602;2022-12-18T02:01:05;2.35;;;1.15;;
65230;SDS011;51813;40.666;16.602;2022-12-18T02:03:31;2.50;;;1.33;;
65230;SDS011;51813;40.666;16.602;2022-12-18T02:08:44;3.05;;;1.50;;
65230;SDS011;51813;40.666;16.602;2022-12-18T02:11:21;2.17;;;1.33;;
65230;SDS011;51813;40.666;16.602;2022-12-18T02:16:55;2.75;;;1.30;;
65230;SDS011;51813;40.666;16.602;2022-12-18T02:28:00;2.35;;;1.33;;
65230;SDS011;51813;40.666;16.602;2022-12-18T02:30:30;2.58;;;1.30;;
65230;SDS011;51813;40.666;16.602;2022-12-18T02:32:58;3.10;;;1.05;;
65230;SDS011;51813;40.666;16.602;2022-12-18T02:35:27;2.20;;;1.10;;
65230;SDS011;51813;40.666;16.602;2022-12-18T02:37:55;2.30;;;1.25;;
65230;SDS011;51813;40.666;16.602;2022-12-18T02:40:23;2.45;;;1.40;;
65230;SDS011;51813;40.666;16.602;2022-12-18T02:42:51;2.53;;;1.30;;
65230;SDS011;51813;40.666;16.602;2022-12-18T02:45:16;2.90;;;1.17;;
65230;SDS011;51813;40.666;16.602;2022-12-18T02:47:43;2.58;;;1.40;;
65230;SDS011;51813;40.666;16.602;2022-12-18T02:50:22;3.10;;;1.47;;
65230;SDS011;51813;40.666;16.602;2022-12-18T02:58:30;4.32;;;2.20;;
65230;SDS011;51813;40.666;16.602;2022-12-18T03:04:09;3.20;;;1.70;;
65230;SDS011;51813;40.666;16.602;2022-12-18T03:06:48;3.95;;;2.08;;
65230;SDS011;51813;40.666;16.602;2022-12-18T03:09:19;4.20;;;2.00;;
65230;SDS011;51813;40.666;16.602;2022-12-18T03:11:58;4.85;;;2.30;;
65230;SDS011;51813;40.666;16.602;2022-12-18T03:15:01;4.32;;;2.40;;
65230;SDS011;51813;40.666;16.602;2022-12-18T03:17:32;3.83;;;2.50;;
65230;SDS011;51813;40.666;16.602;2022-12-18T03:19:59;4.15;;;2.67;;
65230;SDS011;51813;40.666;16.602;2022-12-18T03:22:33;4.32;;;2.55;;
65230;SDS011;51813;40.666;16.602;2022-12-18T03:25:01;3.42;;;2.22;;
65230;SDS011;51813;40.666;16.602;2022-12-18T03:27:30;4.25;;;2.47;;
65230;SDS011;51813;40.666;16.602;2022-12-18T03:30:03;4.20;;;2.75;;
65230;SDS011;51813;40.666;16.602;2022-12-18T03:32:43;4.15;;;2.42;;
65230;SDS011;51813;40.666;16.602;2022-12-18T03:35:10;4.50;;;3.03;;
65230;SDS011;51813;40.666;16.602;2022-12-18T03:37:39;4.43;;;2.60;;
65230;SDS011;51813;40.666;16.602;2022-12-18T03:40:05;4.93;;;2.83;;
65230;SDS011;51813;40.666;16.602;2022-12-18T03:42:42;5.22;;;3.38;;
65230;SDS011;51813;40.666;16.602;2022-12-18T03:48:00;5.53;;;3.30;;
65230;SDS011;51813;40.666;16.602;2022-12-18T03:53:46;5.50;;;3.45;;
65230;SDS011;51813;40.666;16.602;2022-12-18T03:56:19;4.05;;;2.65;;
65230;SDS011;51813;40.666;16.602;2022-12-18T03:58:48;4.68;;;3.08;;
65230;SDS011;51813;40.666;16.602;2022-12-18T04:01:17;5.95;;;3.15;;
65230;SDS011;51813;40.666;16.602;2022-12-18T04:03:44;4.10;;;2.78;;
65230;SDS011;51813;40.666;16.602;2022-12-18T04:06:13;5.38;;;3.40;;
65230;SDS011;51813;40.666;16.602;2022-12-18T04:08:40;6.07;;;3.42;;
65230;SDS011;51813;40.666;16.602;2022-12-18T04:11:06;4.85;;;3.10;;
65230;SDS011;51813;40.666;16.602;2022-12-18T04:13:33;5.72;;;3.75;;
65230;SDS011;51813;40.666;16.602;2022-12-18T04:16:00;6.35;;;4.20;;
65230;SDS011;51813;40.666;16.602;2022-12-18T04:18:26;3.90;;;2.60;;
65230;SDS011;51813;40.666;16.602;2022-12-18T04:20:52;5.68;;;3.55;;
65230;SDS011;51813;40.666;16.602;2022-12-18T04:23:18;6.13;;;3.40;;
65230;SDS011;51813;40.666;16.602;2022-12-18T04:25:43;6.53;;;3.55;;
65230;SDS011;51813;40.666;16.602;2022-12-18T04:28:10;6.35;;;3.60;;
65230;SDS011;51813;40.666;16.602;2022-12-18T04:30:36;5.07;;;3.45;;
65230;SDS011;51813;40.666;16.602;2022-12-18T04:33:01;5.72;;;3.60;;
65230;SDS011;51813;40.666;16.602;2022-12-18T04:35:27;5.57;;;3.45;;
65230;SDS011;51813;40.666;16.602;2022-12-18T04:37:53;4.95;;;3.17;;
65230;SDS011;51813;40.666;16.602;2022-12-18T04:40:18;4.47;;;3.08;;
65230;SDS011;51813;40.666;16.602;2022-12-18T04:42:44;5.40;;;3.40;;
65230;SDS011;51813;40.666;16.602;2022-12-18T04:45:10;4.57;;;3.30;;
65230;SDS011;51813;40.666;16.602;2022-12-18T04:47:35;4.55;;;3.08;;
65230;SDS011;51813;40.666;16.602;2022-12-18T04:50:01;4.50;;;3.13;;
65230;SDS011;51813;40.666;16.602;2022-12-18T04:52:27;4.10;;;2.80;;
65230;SDS011;51813;40.666;16.602;2022-12-18T04:54:53;4.45;;;3.00;;
65230;SDS011;51813;40.666;16.602;2022-12-18T04:57:18;4.95;;;3.35;;
65230;SDS011;51813;40.666;16.602;2022-12-18T04:59:44;4.00;;;2.88;;
65230;SDS011;51813;40.666;16.602;2022-12-18T05:02:10;4.68;;;2.88;;
65230;SDS011;51813;40.666;16.602;2022-12-18T05:04:36;4.53;;;2.72;;
65230;SDS011;51813;40.666;16.602;2022-12-18T05:07:01;3.72;;;2.45;;
65230;SDS011;51813;40.666;16.602;2022-12-18T05:09:27;3.88;;;2.50;;
65230;SDS011;51813;40.666;16.602;2022-12-18T05:11:53;3.88;;;2.40;;
65230;SDS011;51813;40.666;16.602;2022-12-18T05:14:18;4.68;;;3.00;;
65230;SDS011;51813;40.666;16.602;2022-12-18T05:16:44;4.38;;;2.58;;
65230;SDS011;51813;40.666;16.602;2022-12-18T05:19:10;5.28;;;2.72;;
65230;SDS011;51813;40.666;16.602;2022-12-18T05:21:36;4.15;;;2.35;;
65230;SDS011;51813;40.666;16.602;2022-12-18T05:24:01;4.38;;;2.30;;
65230;SDS011;51813;40.666;16.602;2022-12-18T05:26:27;3.90;;;2.40;;
65230;SDS011;51813;40.666;16.602;2022-12-18T05:28:53;3.80;;;2.17;;
65230;SDS011;51813;40.666;16.602;2022-12-18T05:31:18;3.78;;;2.40;;
65230;SDS011;51813;40.666;16.602;2022-12-18T05:33:44;3.70;;;2.30;;
65230;SDS011;51813;40.666;16.602;2022-12-18T05:36:10;3.63;;;2.25;;
65230;SDS011;51813;40.666;16.602;2022-12-18T05:38:37;3.53;;;2.10;;
65230;SDS011;51813;40.666;16.602;2022-12-18T05:41:04;3.95;;;2.20;;
65230;SDS011;51813;40.666;16.602;2022-12-18T05:43:31;3.70;;;2.25;;
65230;SDS011;51813;40.666;16.602;2022-12-18T05:46:03;3.50;;;2.03;;
65230;SDS011;51813;40.666;16.602;2022-12-18T05:48:32;3.45;;;2.05;;
65230;SDS011;51813;40.666;16.602;2022-12-18T05:51:03;3.42;;;1.85;;
65230;SDS011;51813;40.666;16.602;2022-12-18T05:53:30;3.38;;;2.15;;
65230;SDS011;51813;40.666;16.602;2022-12-18T05:55:59;3.97;;;2.65;;
65230;SDS011;51813;40.666;16.602;2022-12-18T05:58:26;4.50;;;2.40;;
65230;SDS011;51813;40.666;16.602;2022-12-18T06:00:52;4.05;;;2.65;;
65230;SDS011;51813;40.666;16.602;2022-12-18T06:03:17;3.25;;;1.95;;
65230;SDS011;51813;40.666;16.602;2022-12-18T06:05:43;4.25;;;2.67;;
65230;SDS011;51813;40.666;16.602;2022-12-18T06:08:10;3.58;;;2.03;;
65230;SDS011;51813;40.666;16.602;2022-12-18T06:10:37;4.47;;;2.22;;
65230;SDS011;51813;40.666;16.602;2022-12-18T06:13:03;3.40;;;2.00;;
65230;SDS011;51813;40.666;16.602;2022-12-18T06:15:29;3.65;;;2.40;;
65230;SDS011;51813;40.666;16.602;2022-12-18T06:17:55;3.40;;;2.17;;
65230;SDS011;51813;40.666;16.602;2022-12-18T06:20:20;3.72;;;2.10;;
65230;SDS011;51813;40.666;16.602;2022-12-18T06:22:47;3.10;;;2.40;;
65230;SDS011;51813;40.666;16.602;2022-12-18T06:25:12;3.03;;;2.13;;
65230;SDS011;51813;40.666;16.602;2022-12-18T06:27:38;3.58;;;2.17;;
65230;SDS011;51813;40.666;16.602;2022-12-18T06:30:04;3.85;;;2.30;;
65230;SDS011;51813;40.666;16.602;2022-12-18T06:32:30;3.47;;;1.98;;
65230;SDS011;51813;40.666;16.602;2022-12-18T06:34:56;3.85;;;1.80;;
65230;SDS011;51813;40.666;16.602;2022-12-18T06:37:22;4.13;;;1.90;;
65230;SDS011;51813;40.666;16.602;2022-12-18T06:39:51;3.28;;;1.98;;
65230;SDS011;51813;40.666;16.602;2022-12-18T06:42:17;4.35;;;1.98;;
65230;SDS011;51813;40.666;16.602;2022-12-18T06:44:43;3.50;;;2.10;;
65230;SDS011;51813;40.666;16.602;2022-12-18T06:47:09;3.42;;;2.20;;
65230;SDS011;51813;40.666;16.602;2022-12-18T06:49:34;2.78;;;1.90;;
65230;SDS011;51813;40.666;16.602;2022-12-18T06:52:00;2.80;;;1.80;;
65230;SDS011;51813;40.666;16.602;2022-12-18T06:54:26;4.70;;;2.22;;
65230;SDS011;51813;40.666;16.602;2022-12-18T06:56:52;3.63;;;2.17;;
65230;SDS011;51813;40.666;16.602;2022-12-18T06:59:18;5.03;;;2.38;;
65230;SDS011;51813;40.666;16.602;2022-12-18T07:01:43;3.80;;;2.45;;
65230;SDS011;51813;40.666;16.602;2022-12-18T07:04:09;4.25;;;2.17;;
65230;SDS011;51813;40.666;16.602;2022-12-18T07:06:35;3.42;;;2.10;;
65230;SDS011;51813;40.666;16.602;2022-12-18T07:09:01;3.15;;;2.00;;
65230;SDS011;51813;40.666;16.602;2022-12-18T07:11:27;2.95;;;1.70;;
65230;SDS011;51813;40.666;16.602;2022-12-18T07:13:52;3.45;;;2.03;;
65230;SDS011;51813;40.666;16.602;2022-12-18T07:16:21;3.65;;;2.03;;
65230;SDS011;51813;40.666;16.602;2022-12-18T07:18:47;3.72;;;2.00;;
65230;SDS011;51813;40.666;16.602;2022-12-18T07:21:14;2.88;;;1.75;;
65230;SDS011;51813;40.666;16.602;2022-12-18T07:23:41;2.70;;;1.80;;
65230;SDS011;51813;40.666;16.602;2022-12-18T07:26:08;3.50;;;1.67;;
65230;SDS011;51813;40.666;16.602;2022-12-18T07:28:36;3.42;;;1.50;;
65230;SDS011;51813;40.666;16.602;2022-12-18T07:31:06;3.03;;;1.70;;
65230;SDS011;51813;40.666;16.602;2022-12-18T07:33:33;4.10;;;1.50;;
65230;SDS011;51813;40.666;16.602;2022-12-18T07:36:00;3.33;;;1.40;;
65230;SDS011;51813;40.666;16.602;2022-12-18T07:38:26;2.90;;;1.58;;
65230;SDS011;51813;40.666;16.602;2022-12-18T07:40:52;2.88;;;1.48;;
65230;SDS011;51813;40.666;16.602;2022-12-18T07:43:17;2.60;;;1.40;;
65230;SDS011;51813;40.666;16.602;2022-12-18T07:45:43;2.65;;;1.63;;
65230;SDS011;51813;40.666;16.602;2022-12-18T07:48:09;2.13;;;1.33;;
65230;SDS011;51813;40.666;16.602;2022-12-18T07:50:35;3.58;;;1.63;;
65230;SDS011;51813;40.666;16.602;2022-12-18T07:53:01;1.83;;;1.10;;
65230;SDS011;51813;40.666;16.602;2022-12-18T07:55:29;2.42;;;1.42;;
65230;SDS011;51813;40.666;16.602;2022-12-18T07:57:56;3.05;;;1.45;;
65230;SDS011;51813;40.666;16.602;2022-12-18T08:00:22;2.47;;;1.40;;
65230;SDS011;51813;40.666;16.602;2022-12-18T08:02:47;2.60;;;1.33;;
65230;SDS011;51813;40.666;16.602;2022-12-18T08:05:13;1.80;;;1.10;;
65230;SDS011;51813;40.666;16.602;2022-12-18T08:07:39;2.88;;;1.20;;
65230;SDS011;51813;40.666;16.602;2022-12-18T08:10:05;2.38;;;1.38;;
65230;SDS011;51813;40.666;16.602;2022-12-18T08:12:31;2.58;;;1.30;;
65230;SDS011;51813;40.666;16.602;2022-12-18T08:14:57;3.85;;;1.60;;
65230;SDS011;51813;40.666;16.602;2022-12-18T08:17:22;2.63;;;1.50;;
65230;SDS011;51813;40.666;16.602;2022-12-18T08:19:48;3.20;;;1.55;;
65230;SDS011;51813;40.666;16.602;2022-12-18T08:22:14;3.00;;;1.38;;
65230;SDS011;51813;40.666;16.602;2022-12-18T08:24:40;2.78;;;1.60;;
65230;SDS011;51813;40.666;16.602;2022-12-18T08:27:05;3.85;;;2.03;;
65230;SDS011;51813;40.666;16.602;2022-12-18T08:29:31;3.13;;;1.30;;
65230;SDS011;51813;40.666;16.602;2022-12-18T08:31:57;2.63;;;1.60;;
65230;SDS011;51813;40.666;16.602;2022-12-18T08:34:22;3.40;;;1.83;;
65230;SDS011;51813;40.666;16.602;2022-12-18T08:36:48;2.85;;;1.50;;
65230;SDS011;51813;40.666;16.602;2022-12-18T08:39:14;2.92;;;1.70;;
65230;SDS011;51813;40.666;16.602;2022-12-18T08:41:39;2.65;;;1.75;;
65230;SDS011;51813;40.666;16.602;2022-12-18T08:44:07;2.72;;;1.50;;
65230;SDS011;51813;40.666;16.602;2022-12-18T08:46:51;4.53;;;1.83;;
65230;SDS011;51813;40.666;16.602;2022-12-18T08:49:17;4.03;;;1.67;;
65230;SDS011;51813;40.666;16.602;2022-12-18T08:51:43;3.40;;;1.95;;
65230;SDS011;51813;40.666;16.602;2022-12-18T08:54:10;2.78;;;1.70;;
65230;SDS011;51813;40.666;16.602;2022-12-18T08:56:38;3.25;;;1.70;;
65230;SDS011;51813;40.666;16.602;2022-12-18T08:59:04;3.63;;;1.70;;
65230;SDS011;51813;40.666;16.602;2022-12-18T09:01:29;3.00;;;1.85;;
65230;SDS011;51813;40.666;16.602;2022-12-18T09:03:55;3.05;;;1.70;;
65230;SDS011;51813;40.666;16.602;2022-12-18T09:06:21;4.35;;;1.85;;
65230;SDS011;51813;40.666;16.602;2022-12-18T09:08:48;2.70;;;1.42;;
65230;SDS011;51813;40.666;16.602;2022-12-18T09:11:24;3.83;;;1.80;;
65230;SDS011;51813;40.666;16.602;2022-12-18T09:13:51;3.88;;;1.85;;
65230;SDS011;51813;40.666;16.602;2022-12-18T09:16:18;2.67;;;1.77;;
65230;SDS011;51813;40.666;16.602;2022-12-18T09:18:45;4.13;;;1.85;;
65230;SDS011;51813;40.666;16.602;2022-12-18T09:21:12;2.78;;;1.58;;
65230;SDS011;51813;40.666;16.602;2022-12-18T09:23:40;2.95;;;1.67;;
65230;SDS011;51813;40.666;16.602;2022-12-18T09:26:06;2.80;;;1.80;;
65230;SDS011;51813;40.666;16.602;2022-12-18T09:28:32;3.42;;;1.98;;
65230;SDS011;51813;40.666;16.602;2022-12-18T09:30:58;2.38;;;1.48;;
65230;SDS011;51813;40.666;16.602;2022-12-18T09:33:28;3.53;;;1.80;;
65230;SDS011;51813;40.666;16.602;2022-12-18T09:35:53;4.22;;;1.63;;
65230;SDS011;51813;40.666;16.602;2022-12-18T09:38:19;3.17;;;1.75;;
65230;SDS011;51813;40.666;16.602;2022-12-18T09:40:49;3.10;;;2.08;;
65230;SDS011;51813;40.666;16.602;2022-12-18T09:43:18;2.40;;;1.38;;
65230;SDS011;51813;40.666;16.602;2022-12-18T09:45:49;3.70;;;1.77;;
65230;SDS011;51813;40.666;16.602;2022-12-18T09:48:23;5.70;;;1.63;;
65230;SDS011;51813;40.666;16.602;2022-12-18T09:50:56;3.45;;;1.60;;
65230;SDS011;51813;40.666;16.602;2022-12-18T09:53:26;4.30;;;1.60;;
65230;SDS011;51813;40.666;16.602;2022-12-18T09:55:56;3.45;;;1.70;;
65230;SDS011;51813;40.666;16.602;2022-12-18T10:00:58;2.92;;;1.50;;
65230;SDS011;51813;40.666;16.602;2022-12-18T10:03:24;2.72;;;1.50;;
65230;SDS011;51813;40.666;16.602;2022-12-18T10:14:01;2.40;;;1.42;;
65230;SDS011;51813;40.666;16.602;2022-12-18T10:16:36;3.55;;;1.30;;
65230;SDS011;51813;40.666;16.602;2022-12-18T10:19:39;2.88;;;1.50;;
65230;SDS011;51813;40.666;16.602;2022-12-18T10:22:22;3.38;;;1.30;;
65230;SDS011;51813;40.666;16.602;2022-12-18T10:24:53;3.22;;;1.33;;
65230;SDS011;51813;40.666;16.602;2022-12-18T10:27:26;2.97;;;1.27;;
65230;SDS011;51813;40.666;16.602;2022-12-18T10:29:53;2.95;;;1.40;;
65230;SDS011;51813;40.666;16.602;2022-12-18T10:32:22;3.83;;;1.67;;
65230;SDS011;51813;40.666;16.602;2022-12-18T10:34:53;3.67;;;1.48;;
65230;SDS011;51813;40.666;16.602;2022-12-18T10:37:22;2.65;;;1.33;;
65230;SDS011;51813;40.666;16.602;2022-12-18T10:42:34;2.33;;;1.48;;
65230;SDS011;51813;40.666;16.602;2022-12-18T10:45:07;2.58;;;1.10;;
65230;SDS011;51813;40.666;16.602;2022-12-18T10:47:34;2.45;;;1.48;;
65230;SDS011;51813;40.666;16.602;2022-12-18T10:50:00;2.50;;;1.25;;
65230;SDS011;51813;40.666;16.602;2022-12-18T10:52:26;2.88;;;1.30;;
65230;SDS011;51813;40.666;16.602;2022-12-18T10:54:53;3.25;;;1.48;;
65230;SDS011;51813;40.666;16.602;2022-12-18T10:59:52;3.50;;;1.52;;
65230;SDS011;51813;40.666;16.602;2022-12-18T11:02:38;2.42;;;1.45;;
65230;SDS011;51813;40.666;16.602;2022-12-18T11:05:25;2.40;;;1.30;;
65230;SDS011;51813;40.666;16.602;2022-12-18T11:07:59;3.08;;;1.50;;
65230;SDS011;51813;40.666;16.602;2022-12-18T11:10:47;2.50;;;1.60;;
65230;SDS011;51813;40.666;16.602;2022-12-18T11:13:21;3.67;;;1.58;;
65230;SDS011;51813;40.666;16.602;2022-12-18T11:15:49;2.55;;;1.40;;
65230;SDS011;51813;40.666;16.602;2022-12-18T11:18:20;3.17;;;1.48;;
65230;SDS011;51813;40.666;16.602;2022-12-18T11:20:59;2.90;;;1.52;;
65230;SDS011;51813;40.666;16.602;2022-12-18T11:23:34;2.80;;;1.58;;
65230;SDS011;51813;40.666;16.602;2022-12-18T11:26:02;3.75;;;1.50;;
65230;SDS011;51813;40.666;16.602;2022-12-18T11:36:36;2.75;;;1.60;;
65230;SDS011;51813;40.666;16.602;2022-12-18T11:39:09;2.60;;;1.45;;
65230;SDS011;51813;40.666;16.602;2022-12-18T11:41:49;3.03;;;1.60;;
65230;SDS011;51813;40.666;16.602;2022-12-18T11:50:03;2.88;;;1.50;;
65230;SDS011;51813;40.666;16.602;2022-12-18T11:52:47;2.50;;;1.35;;
65230;SDS011;51813;40.666;16.602;2022-12-18T11:55:14;3.25;;;1.45;;
65230;SDS011;51813;40.666;16.602;2022-12-18T12:00:25;2.83;;;1.50;;
65230;SDS011;51813;40.666;16.602;2022-12-18T12:11:11;4.38;;;1.60;;
65230;SDS011;51813;40.666;16.602;2022-12-18T12:16:34;2.67;;;1.50;;
65230;SDS011;51813;40.666;16.602;2022-12-18T12:24:55;3.00;;;1.50;;
65230;SDS011;51813;40.666;16.602;2022-12-18T12:30:30;3.20;;;1.60;;
65230;SDS011;51813;40.666;16.602;2022-12-18T12:33:07;2.80;;;1.50;;
65230;SDS011;51813;40.666;16.602;2022-12-18T12:41:20;2.97;;;1.50;;
65230;SDS011;51813;40.666;16.602;2022-12-18T12:44:09;2.97;;;1.85;;
65230;SDS011;51813;40.666;16.602;2022-12-18T12:46:41;2.90;;;1.42;;
65230;SDS011;51813;40.666;16.602;2022-12-18T12:49:18;3.08;;;1.40;;
65230;SDS011;51813;40.666;16.602;2022-12-18T12:51:50;3.20;;;1.70;;
65230;SDS011;51813;40.666;16.602;2022-12-18T12:54:24;2.92;;;1.52;;
65230;SDS011;51813;40.666;16.602;2022-12-18T12:59:56;3.05;;;1.75;;
65230;SDS011;51813;40.666;16.602;2022-12-18T13:13:12;3.65;;;2.10;;
65230;SDS011;51813;40.666;16.602;2022-12-18T13:25:52;3.42;;;1.65;;
65230;SDS011;51813;40.666;16.602;2022-12-18T13:28:53;3.42;;;1.95;;
65230;SDS011;51813;40.666;16.602;2022-12-18T13:31:15;3.65;;;1.80;;
65230;SDS011;51813;40.666;16.602;2022-12-18T13:34:19;4.15;;;2.10;;
65230;SDS011;51813;40.666;16.602;2022-12-18T13:36:46;3.33;;;1.90;;
65230;SDS011;51813;40.666;16.602;2022-12-18T13:42:37;4.35;;;2.15;;
65230;SDS011;51813;40.666;16.602;2022-12-18T13:44:37;5.55;;;2.05;;
65230;SDS011;51813;40.666;16.602;2022-12-18T13:49:56;3.88;;;1.80;;
65230;SDS011;51813;40.666;16.602;2022-12-18T13:52:23;3.38;;;1.95;;
65230;SDS011;51813;40.666;16.602;2022-12-18T13:54:55;2.97;;;1.90;;
65230;SDS011;51813;40.666;16.602;2022-12-18T13:57:26;3.58;;;1.80;;
65230;SDS011;51813;40.666;16.602;2022-12-18T13:59:54;3.67;;;1.73;;
65230;SDS011;51813;40.666;16.602;2022-12-18T14:02:22;3.03;;;1.88;;
65230;SDS011;51813;40.666;16.602;2022-12-18T14:04:50;3.45;;;1.90;;
65230;SDS011;51813;40.666;16.602;2022-12-18T14:09:49;3.92;;;2.05;;
65230;SDS011;51813;40.666;16.602;2022-12-18T14:12:32;2.70;;;1.65;;
65230;SDS011;51813;40.666;16.602;2022-12-18T14:17:51;4.00;;;1.90;;
65230;SDS011;51813;40.666;16.602;2022-12-18T14:20:21;3.83;;;2.05;;
65230;SDS011;51813;40.666;16.602;2022-12-18T14:22:49;3.63;;;2.10;;
65230;SDS011;51813;40.666;16.602;2022-12-18T14:25:19;3.17;;;2.00;;
65230;SDS011;51813;40.666;16.602;2022-12-18T14:27:49;4.25;;;2.20;;
65230;SDS011;51813;40.666;16.602;2022-12-18T14:30:28;2.83;;;1.67;;
65230;SDS011;51813;40.666;16.602;2022-12-18T14:33:00;4.35;;;2.10;;
65230;SDS011;51813;40.666;16.602;2022-12-18T14:35:55;4.57;;;2.38;;
65230;SDS011;51813;40.666;16.602;2022-12-18T14:38:29;4.00;;;2.33;;
65230;SDS011;51813;40.666;16.602;2022-12-18T14:41:06;3.15;;;1.83;;
65230;SDS011;51813;40.666;16.602;2022-12-18T14:43:36;3.13;;;2.00;;
65230;SDS011;51813;40.666;16.602;2022-12-18T14:48:54;5.82;;;2.00;;
65230;SDS011;51813;40.666;16.602;2022-12-18T14:51:22;3.08;;;1.77;;
65230;SDS011;51813;40.666;16.602;2022-12-18T14:53:55;3.42;;;1.83;;
65230;SDS011;51813;40.666;16.602;2022-12-18T14:58:56;3.72;;;1.90;;
65230;SDS011;51813;40.666;16.602;2022-12-18T15:01:26;3.35;;;1.90;;
65230;SDS011;51813;40.666;16.602;2022-12-18T15:03:55;4.28;;;2.00;;
65230;SDS011;51813;40.666;16.602;2022-12-18T15:06:29;4.45;;;1.73;;
65230;SDS011;51813;40.666;16.602;2022-12-18T15:08:55;3.15;;;1.90;;
65230;SDS011;51813;40.666;16.602;2022-12-18T15:17:13;5.10;;;1.92;;
65230;SDS011;51813;40.666;16.602;2022-12-18T15:19:48;3.90;;;2.03;;
65230;SDS011;51813;40.666;16.602;2022-12-18T15:22:20;3.67;;;1.88;;
65230;SDS011;51813;40.666;16.602;2022-12-18T15:24:46;5.15;;;1.88;;
65230;SDS011;51813;40.666;16.602;2022-12-18T15:27:26;5.28;;;2.45;;
65230;SDS011;51813;40.666;16.602;2022-12-18T15:29:59;3.70;;;1.80;;
65230;SDS011;51813;40.666;16.602;2022-12-18T15:32:37;4.07;;;2.00;;
65230;SDS011;51813;40.666;16.602;2022-12-18T15:37:42;5.05;;;2.17;;
65230;SDS011;51813;40.666;16.602;2022-12-18T15:40:16;4.68;;;2.10;;
65230;SDS011;51813;40.666;16.602;2022-12-18T15:42:46;4.38;;;2.08;;
65230;SDS011;51813;40.666;16.602;2022-12-18T15:45:32;3.78;;;2.28;;
65230;SDS011;51813;40.666;16.602;2022-12-18T15:47:58;4.30;;;1.90;;
65230;SDS011;51813;40.666;16.602;2022-12-18T15:50:24;3.67;;;1.70;;
65230;SDS011;51813;40.666;16.602;2022-12-18T15:52:51;4.30;;;1.95;;
65230;SDS011;51813;40.666;16.602;2022-12-18T15:55:20;3.78;;;2.20;;
65230;SDS011;51813;40.666;16.602;2022-12-18T15:58:06;4.68;;;1.83;;
65230;SDS011;51813;40.666;16.602;2022-12-18T16:00:34;3.53;;;1.88;;
65230;SDS011;51813;40.666;16.602;2022-12-18T16:03:02;5.07;;;1.88;;
65230;SDS011;51813;40.666;16.602;2022-12-18T16:05:29;3.97;;;1.90;;
65230;SDS011;51813;40.666;16.602;2022-12-18T16:07:55;4.63;;;2.38;;
65230;SDS011;51813;40.666;16.602;2022-12-18T16:10:21;5.20;;;2.00;;
65230;SDS011;51813;40.666;16.602;2022-12-18T16:12:47;5.13;;;2.30;;
65230;SDS011;51813;40.666;16.602;2022-12-18T16:15:13;4.50;;;2.30;;
65230;SDS011;51813;40.666;16.602;2022-12-18T16:17:41;3.97;;;2.20;;
65230;SDS011;51813;40.666;16.602;2022-12-18T16:20:18;3.85;;;2.33;;
65230;SDS011;51813;40.666;16.602;2022-12-18T16:22:46;4.45;;;2.38;;
65230;SDS011;51813;40.666;16.602;2022-12-18T16:25:23;3.55;;;1.92;;
65230;SDS011;51813;40.666;16.602;2022-12-18T16:27:50;3.35;;;2.05;;
65230;SDS011;51813;40.666;16.602;2022-12-18T16:30:19;5.82;;;2.35;;
65230;SDS011;51813;40.666;16.602;2022-12-18T16:32:47;4.45;;;2.40;;
65230;SDS011;51813;40.666;16.602;2022-12-18T16:35:13;4.45;;;2.30;;
65230;SDS011;51813;40.666;16.602;2022-12-18T16:37:41;4.07;;;2.10;;
65230;SDS011;51813;40.666;16.602;2022-12-18T16:40:07;3.70;;;1.83;;
65230;SDS011;51813;40.666;16.602;2022-12-18T16:42:35;3.80;;;2.10;;
65230;SDS011;51813;40.666;16.602;2022-12-18T16:45:03;5.13;;;2.13;;
65230;SDS011;51813;40.666;16.602;2022-12-18T16:47:30;4.72;;;2.25;;
65230;SDS011;51813;40.666;16.602;2022-12-18T16:49:55;7.03;;;2.40;;
65230;SDS011;51813;40.666;16.602;2022-12-18T16:52:21;4.30;;;2.00;;
65230;SDS011;51813;40.666;16.602;2022-12-18T16:54:47;5.88;;;2.20;;
65230;SDS011;51813;40.666;16.602;2022-12-18T16:57:13;3.67;;;2.13;;
65230;SDS011;51813;40.666;16.602;2022-12-18T16:59:41;4.68;;;1.95;;
65230;SDS011;51813;40.666;16.602;2022-12-18T17:02:17;3.58;;;2.00;;